»·PEaware :: N800DW CYTZ-KBIL

N800DW :: CYTZ-KBIL

FLIGHT INFORMATION

Flight Status: Arrived
Operator: Privately registered:
United States
More flights under this callsign
Pilot: Scott L. (17677)
Aircraft: Unknown
(EPIC)
More flights by this aircraft type
Origin: CYTZ Toronto/City Centre
Canada
Destination: KBIL Billings Logan Intl
United States
More flights between these airports :: More routes between these airports
Route: +MNM KJMR AXN WEDVA CODAP
File this flight plan on PilotEdge
Remarks:
Altitude:
(Current/Filed)
32,000ft
Speed:
(Current/Filed)
280kts
Departed: 18-Mar-18 11:32 AM
Arrived: 18-Mar-18 03:58 PM
Distance/Time
Traveled:
1243nm/4:25
Distance/Time
To Go:
Arrived

Flight Plot

Page will automatically refresh every two minutes.

Flight plan parsing failed; only flown route is shown


Map Options




Map Legend


Flown Route
Filed Route
Departure Airport
Arrival Airport
Navaid (VOR, NDB)
Fix

Horizontal Profiles

Position Reports

Time Latitude Longitude Heading Altitude Ground
Speed
18-Mar-18 11:30 43.696763 -79.708062 285 14383ft 200kts
18-Mar-18 11:31 43.715340 -79.781059 282 17017ft 207kts
18-Mar-18 11:32 43.733069 -79.857464 280 19212ft 213kts
18-Mar-18 11:33 43.750924 -79.936462 279 21037ft 219kts
18-Mar-18 11:34 43.769147 -80.017780 278 22539ft 224kts
18-Mar-18 11:35 43.784621 -80.087260 278 23579ft 229kts
18-Mar-18 11:36 43.806693 -80.186691 278 24783ft 235kts
18-Mar-18 11:37 43.822724 -80.259158 278 25510ft 238kts
18-Mar-18 11:38 43.845437 -80.362229 278 26363ft 242kts
18-Mar-18 11:39 43.861854 -80.437088 278 26873ft 245kts
18-Mar-18 11:40 43.881450 -80.526712 278 27655ft 240kts
18-Mar-18 11:41 43.900821 -80.615810 278 28176ft 244kts
18-Mar-18 11:42 43.920118 -80.704864 278 28686ft 246kts
18-Mar-18 11:43 43.939843 -80.796276 278 29136ft 248kts
18-Mar-18 11:44 43.959628 -80.888393 278 29520ft 250kts
18-Mar-18 11:45 43.979516 -80.981407 278 29853ft 252kts
18-Mar-18 11:46 43.999433 -81.074911 278 30135ft 253kts
18-Mar-18 11:47 44.019374 -81.169037 278 30376ft 255kts
18-Mar-18 11:48 44.039335 -81.263671 278 30586ft 256kts
18-Mar-18 11:49 44.059306 -81.358741 278 30758ft 257kts
18-Mar-18 11:50 44.079228 -81.454081 278 30913ft 257kts
18-Mar-18 11:51 44.099131 -81.549734 278 31041ft 258kts
18-Mar-18 11:52 44.118922 -81.645305 278 31112ft 258kts
18-Mar-18 11:53 44.138456 -81.740070 278 31227ft 258kts
18-Mar-18 11:54 44.158206 -81.836322 278 31315ft 259kts
18-Mar-18 11:55 44.177953 -81.933054 278 31388ft 259kts
18-Mar-18 11:56 44.197585 -82.029666 278 31449ft 260kts
18-Mar-18 11:57 44.217165 -82.126528 278 31504ft 260kts
18-Mar-18 11:58 44.236720 -82.223671 278 31538ft 260kts
18-Mar-18 11:59 44.256181 -82.320880 278 31571ft 260kts
18-Mar-18 12:00 44.275508 -82.417848 278 31587ft 260kts
18-Mar-18 12:01 44.294828 -82.515328 278 31604ft 260kts
18-Mar-18 12:02 44.313857 -82.612076 280 31828ft 251kts
18-Mar-18 12:03 44.331692 -82.703355 283 32014ft 244kts
18-Mar-18 12:04 44.349407 -82.794190 289 32024ft 241kts
18-Mar-18 12:05 44.367151 -82.884581 289 32020ft 242kts
18-Mar-18 12:06 44.384796 -82.975504 288 32013ft 244kts
18-Mar-18 12:07 44.402513 -83.067439 288 32009ft 246kts
18-Mar-18 12:08 44.420258 -83.160009 288 32008ft 247kts
18-Mar-18 12:09 44.437991 -83.252928 288 32006ft 247kts
18-Mar-18 12:10 44.455625 -83.345768 288 32005ft 247kts
18-Mar-18 12:11 44.473176 -83.438618 288 32004ft 247kts
18-Mar-18 12:12 44.490653 -83.531540 288 32003ft 247kts
18-Mar-18 12:13 44.508044 -83.624344 287 32002ft 246kts
18-Mar-18 12:14 44.524978 -83.715364 287 32011ft 247kts
18-Mar-18 12:15 44.542263 -83.808621 287 32011ft 248kts
18-Mar-18 12:16 44.559496 -83.902064 287 32016ft 248kts
18-Mar-18 12:17 44.576646 -83.995525 287 32023ft 247kts
18-Mar-18 12:18 44.593707 -84.088971 287 32023ft 247kts
18-Mar-18 12:19 44.610674 -84.182374 287 32020ft 247kts
18-Mar-18 12:20 44.627610 -84.276086 287 32015ft 247kts
18-Mar-18 12:21 44.644381 -84.369355 287 32013ft 247kts
18-Mar-18 12:22 44.661114 -84.462897 287 32012ft 247kts
18-Mar-18 12:23 44.677737 -84.556299 287 32011ft 246kts
18-Mar-18 12:24 44.694223 -84.649409 287 32010ft 246kts
18-Mar-18 12:25 44.710583 -84.742285 286 32018ft 247kts
18-Mar-18 12:26 44.727038 -84.836177 286 32017ft 248kts
18-Mar-18 12:27 44.743466 -84.930422 286 32016ft 248kts
18-Mar-18 12:28 44.759771 -85.024356 286 32025ft 248kts
18-Mar-18 12:29 44.776054 -85.118733 285 32042ft 249kts
18-Mar-18 12:30 44.792310 -85.213513 285 32059ft 250kts
18-Mar-18 12:31 44.808642 -85.309328 285 32059ft 252kts
18-Mar-18 12:32 44.824908 -85.405198 285 32058ft 252kts
18-Mar-18 12:33 44.841117 -85.501254 285 32057ft 252kts
18-Mar-18 12:34 44.857254 -85.597407 285 32056ft 252kts
18-Mar-18 12:35 44.873108 -85.692420 284 32064ft 252kts
18-Mar-18 12:36 44.889150 -85.789040 284 32063ft 253kts
18-Mar-18 12:37 44.905117 -85.885788 284 32062ft 254kts
18-Mar-18 12:38 44.921077 -85.983051 284 32061ft 254kts
18-Mar-18 12:39 44.936858 -86.079774 284 32060ft 254kts
18-Mar-18 12:40 44.952586 -86.176732 284 32059ft 253kts
18-Mar-18 12:41 44.968238 -86.273787 284 32058ft 253kts
18-Mar-18 12:42 44.983770 -86.370653 284 32057ft 252kts
18-Mar-18 12:43 44.999118 -86.466931 284 32056ft 251kts
18-Mar-18 12:44 45.014325 -86.562876 284 32054ft 250kts
18-Mar-18 12:45 45.029188 -86.657231 284 32058ft 249kts
18-Mar-18 12:46 45.044071 -86.752175 284 32069ft 249kts
18-Mar-18 12:47 45.058890 -86.847300 284 32076ft 248kts
18-Mar-18 12:48 45.073655 -86.942509 284 32078ft 247kts
18-Mar-18 12:49 45.088327 -87.037764 283 32078ft 248kts
18-Mar-18 12:50 45.102742 -87.131973 282 32081ft 250kts
18-Mar-18 12:51 45.117307 -87.227833 282 32078ft 251kts
18-Mar-18 12:52 45.131952 -87.324685 282 32073ft 252kts
18-Mar-18 12:53 45.146522 -87.421627 282 32070ft 252kts
18-Mar-18 12:54 45.160959 -87.518275 282 32069ft 251kts
18-Mar-18 12:55 45.175379 -87.615402 282 32068ft 251kts
18-Mar-18 12:56 45.189754 -87.710734 282 32077ft 252kts
18-Mar-18 12:57 45.204455 -87.807913 282 32076ft 253kts
18-Mar-18 12:58 45.219118 -87.905382 282 32071ft 253kts
18-Mar-18 12:59 45.233712 -88.002993 282 32062ft 253kts
18-Mar-18 13:00 45.248198 -88.100486 282 32054ft 253kts
18-Mar-18 13:01 45.262599 -88.198012 282 32049ft 253kts
18-Mar-18 13:02 45.276943 -88.295769 282 32044ft 252kts
18-Mar-18 13:03 45.291184 -88.393441 282 32042ft 252kts
18-Mar-18 13:04 45.305287 -88.490777 282 32040ft 252kts
18-Mar-18 13:05 45.319337 -88.588377 282 32038ft 252kts
18-Mar-18 13:06 45.332750 -88.682173 282 32047ft 252kts
18-Mar-18 13:07 45.346641 -88.779867 282 32047ft 253kts
18-Mar-18 13:08 45.360506 -88.877893 281 32046ft 253kts
18-Mar-18 13:09 45.374328 -88.976368 280 32045ft 254kts
18-Mar-18 13:10 45.388095 -89.075223 280 32045ft 256kts
18-Mar-18 13:11 45.401869 -89.174803 280 32047ft 256kts
18-Mar-18 13:12 45.415550 -89.274307 280 32050ft 256kts
18-Mar-18 13:13 45.429169 -89.373849 279 32026ft 257kts
18-Mar-18 13:14 45.442681 -89.473625 279 32022ft 257kts
18-Mar-18 13:15 45.456124 -89.573451 279 32021ft 257kts
18-Mar-18 13:16 45.469304 -89.672026 279 32028ft 256kts
18-Mar-18 13:17 45.482503 -89.771346 279 32029ft 257kts
18-Mar-18 13:18 45.495710 -89.871462 279 32028ft 258kts
18-Mar-18 13:19 45.508859 -89.971849 279 32027ft 258kts
18-Mar-18 13:20 45.521947 -90.072491 279 32028ft 258kts
18-Mar-18 13:21 45.534880 -90.172675 279 32031ft 257kts
18-Mar-18 13:22 45.547748 -90.273073 279 32033ft 257kts
18-Mar-18 13:23 45.560517 -90.373433 279 32032ft 257kts
18-Mar-18 13:24 45.573140 -90.473380 279 32031ft 257kts
18-Mar-18 13:25 45.585696 -90.573529 279 32039ft 256kts
18-Mar-18 13:26 45.598052 -90.672865 278 32058ft 256kts
18-Mar-18 13:27 45.610459 -90.773266 278 32064ft 257kts
18-Mar-18 13:28 45.622812 -90.874019 278 32063ft 258kts
18-Mar-18 13:29 45.635055 -90.974631 278 32063ft 258kts
18-Mar-18 13:30 45.647271 -91.075700 278 32062ft 258kts
18-Mar-18 13:31 45.659404 -91.176976 277 32062ft 260kts
18-Mar-18 13:32 45.671557 -91.279348 277 32062ft 261kts
18-Mar-18 13:33 45.683621 -91.381700 277 32063ft 262kts
18-Mar-18 13:34 45.695608 -91.484186 277 32064ft 262kts
18-Mar-18 13:35 45.707508 -91.586764 277 32065ft 262kts
18-Mar-18 13:36 45.719246 -91.688797 276 32075ft 262kts
18-Mar-18 13:37 45.731024 -91.791956 276 32067ft 263kts
18-Mar-18 13:38 45.742719 -91.895271 276 32058ft 263kts
18-Mar-18 13:39 45.754316 -91.998587 276 32056ft 263kts
18-Mar-18 13:40 45.765820 -92.101962 276 32060ft 263kts
18-Mar-18 13:41 45.777212 -92.205216 277 32062ft 262kts
18-Mar-18 13:42 45.786608 -92.291048 277 32061ft 262kts
18-Mar-18 13:43 45.799689 -92.411579 277 32060ft 262kts
18-Mar-18 13:44 45.810765 -92.514608 277 32059ft 262kts
18-Mar-18 13:45 45.821738 -92.617574 277 32058ft 262kts
18-Mar-18 13:46 45.832505 -92.719516 276 32066ft 262kts
18-Mar-18 13:47 45.841542 -92.805738 276 32065ft 263kts
18-Mar-18 13:48 45.854131 -92.926926 276 32065ft 263kts
18-Mar-18 13:49 45.863033 -93.013414 276 32066ft 264kts
18-Mar-18 13:50 45.875448 -93.135232 275 32069ft 265kts
18-Mar-18 13:51 45.884245 -93.222392 276 32070ft 266kts
18-Mar-18 13:52 45.891452 -93.328023 272 32070ft 266kts
18-Mar-18 13:53 45.896876 -93.451189 272 32069ft 265kts
18-Mar-18 13:54 45.900589 -93.539460 272 32068ft 265kts
18-Mar-18 13:55 45.904922 -93.645025 271 32066ft 265kts
18-Mar-18 13:56 45.909133 -93.749855 271 32069ft 266kts
18-Mar-18 13:57 45.913303 -93.856194 271 32065ft 267kts
18-Mar-18 13:58 45.917369 -93.962484 271 32060ft 267kts
18-Mar-18 13:59 45.921337 -94.068767 271 32055ft 267kts
18-Mar-18 14:00 45.925202 -94.174968 271 32054ft 266kts
18-Mar-18 14:01 45.928966 -94.281089 271 32053ft 266kts
18-Mar-18 14:02 45.932627 -94.387072 271 32053ft 266kts
18-Mar-18 14:03 45.936190 -94.493121 271 32053ft 266kts
18-Mar-18 14:04 45.939639 -94.598696 271 32052ft 265kts
18-Mar-18 14:05 45.942970 -94.703643 270 32057ft 266kts
18-Mar-18 14:06 45.946250 -94.809753 270 32055ft 266kts
18-Mar-18 14:07 45.949447 -94.916276 270 32050ft 267kts
18-Mar-18 14:08 45.952549 -95.023379 270 32047ft 269kts
18-Mar-18 14:09 45.955560 -95.131183 270 32045ft 270kts
18-Mar-18 14:10 45.959314 -95.238916 274 32043ft 272kts
18-Mar-18 14:11 45.967100 -95.346997 273 32044ft 271kts
18-Mar-18 14:12 45.975142 -95.454810 273 32043ft 271kts
18-Mar-18 14:13 45.983136 -95.562109 272 32036ft 272kts
18-Mar-18 14:14 45.990966 -95.669499 272 32039ft 273kts
18-Mar-18 14:15 45.998844 -95.778408 272 32039ft 274kts
18-Mar-18 14:16 46.006602 -95.887070 272 32032ft 274kts
18-Mar-18 14:17 46.014277 -95.996157 272 32024ft 274kts
18-Mar-18 14:18 46.021864 -96.105447 272 32027ft 274kts
18-Mar-18 14:19 46.029307 -96.214185 272 32031ft 274kts
18-Mar-18 14:20 46.036658 -96.323130 272 32035ft 273kts
18-Mar-18 14:21 46.043892 -96.431940 272 32042ft 273kts
18-Mar-18 14:22 46.051023 -96.540708 272 32047ft 273kts
18-Mar-18 14:23 46.058052 -96.649562 272 32045ft 273kts
18-Mar-18 14:24 46.064860 -96.756537 271 32050ft 274kts
18-Mar-18 14:25 46.071723 -96.866002 271 32049ft 274kts
18-Mar-18 14:26 46.078455 -96.975119 271 32047ft 274kts
18-Mar-18 14:27 46.085094 -97.084192 270 32047ft 275kts
18-Mar-18 14:28 46.091697 -97.194696 270 32047ft 278kts
18-Mar-18 14:29 46.098204 -97.305741 270 32047ft 280kts
18-Mar-18 14:30 46.104474 -97.414184 270 32041ft 280kts
18-Mar-18 14:31 46.110819 -97.525749 270 32038ft 279kts
18-Mar-18 14:32 46.117032 -97.637067 270 32034ft 279kts
18-Mar-18 14:33 46.123088 -97.747451 269 32037ft 280kts
18-Mar-18 14:34 46.129096 -97.858956 269 32035ft 280kts
18-Mar-18 14:35 46.135019 -97.970880 269 32034ft 280kts
18-Mar-18 14:36 46.140814 -98.082426 269 32033ft 279kts
18-Mar-18 14:37 46.146498 -98.194023 269 32032ft 279kts
18-Mar-18 14:38 46.152072 -98.305645 269 32030ft 279kts
18-Mar-18 14:39 46.157551 -98.417544 269 32028ft 279kts
18-Mar-18 14:40 46.162912 -98.529225 269 32026ft 279kts
18-Mar-18 14:41 46.168150 -98.640745 269 32026ft 279kts
18-Mar-18 14:42 46.173109 -98.748506 269 32030ft 279kts
18-Mar-18 14:43 46.178154 -98.860417 269 32029ft 279kts
18-Mar-18 14:44 46.183096 -98.972098 268 32028ft 280kts
18-Mar-18 14:45 46.187939 -99.084293 267 32027ft 280kts
18-Mar-18 14:46 46.192645 -99.196489 267 32025ft 281kts
18-Mar-18 14:47 46.197286 -99.309328 267 32024ft 282kts
18-Mar-18 14:48 46.201808 -99.422181 267 32013ft 282kts
18-Mar-18 14:49 46.206232 -99.535132 267 31992ft 282kts
18-Mar-18 14:50 46.210555 -99.648237 267 31976ft 282kts
18-Mar-18 14:51 46.214699 -99.759877 267 31980ft 282kts
18-Mar-18 14:52 46.218787 -99.872876 267 31979ft 282kts
18-Mar-18 14:53 46.222763 -99.985822 267 31979ft 282kts
18-Mar-18 14:54 46.226627 -100.098712 267 31980ft 282kts
18-Mar-18 14:55 46.230369 -100.211480 267 32007ft 281kts
18-Mar-18 14:56 46.233427 -100.323968 262 32039ft 278kts
18-Mar-18 14:57 46.230954 -100.435889 263 32037ft 279kts
18-Mar-18 14:58 46.228478 -100.547798 263 32036ft 279kts
18-Mar-18 14:59 46.225937 -100.658614 262 32037ft 279kts
18-Mar-18 15:00 46.223259 -100.770401 262 32038ft 279kts
18-Mar-18 15:01 46.220480 -100.882675 262 32038ft 279kts
18-Mar-18 15:02 46.217599 -100.994316 261 32040ft 279kts
18-Mar-18 15:03 46.214579 -101.106320 261 32042ft 279kts
18-Mar-18 15:04 46.211455 -101.218459 261 32041ft 279kts
18-Mar-18 15:05 46.208243 -101.329952 261 32041ft 279kts
18-Mar-18 15:06 46.204907 -101.442058 261 32040ft 279kts
18-Mar-18 15:07 46.201483 -101.553382 261 32034ft 279kts
18-Mar-18 15:08 46.197969 -101.664015 260 32009ft 278kts
18-Mar-18 15:09 46.134805 -103.276349 267 31963ft 273kts
18-Mar-18 15:10 46.130443 -103.385782 268 31963ft 273kts
18-Mar-18 15:11 46.126035 -103.495082 268 31963ft 273kts
18-Mar-18 15:12 46.121545 -103.604025 268 31963ft 273kts
18-Mar-18 15:13 46.117046 -103.710691 267 31963ft 274kts
18-Mar-18 15:14 46.112335 -103.819949 267 31972ft 273kts
18-Mar-18 15:15 46.107525 -103.929098 267 31972ft 273kts
18-Mar-18 15:16 46.102609 -104.038305 267 31972ft 273kts
18-Mar-18 15:17 46.097572 -104.147824 267 31972ft 274kts
18-Mar-18 15:18 46.092463 -104.256634 267 31972ft 274kts
18-Mar-18 15:19 46.087161 -104.367425 267 31539ft 288kts
18-Mar-18 15:20 46.081368 -104.486265 267 30555ft 304kts
18-Mar-18 15:21 46.075244 -104.608948 267 29566ft 310kts
18-Mar-18 15:22 46.069077 -104.729728 266 28601ft 312kts
18-Mar-18 15:23 46.062631 -104.853339 266 27617ft 313kts
18-Mar-18 15:24 46.055959 -104.978612 266 26623ft 315kts
18-Mar-18 15:25 46.049125 -105.104348 266 25631ft 317kts
18-Mar-18 15:26 46.042131 -105.230481 266 24639ft 317kts
18-Mar-18 15:27 46.034985 -105.356793 266 23646ft 318kts
18-Mar-18 15:28 46.027673 -105.483503 266 22651ft 318kts
18-Mar-18 15:29 46.020232 -105.609999 266 21659ft 319kts
18-Mar-18 15:30 46.012774 -105.734429 265 20582ft 322kts
18-Mar-18 15:31 46.004893 -105.863567 265 19190ft 327kts
18-Mar-18 15:32 45.996795 -105.993794 265 17796ft 328kts
18-Mar-18 15:33 45.988509 -106.124563 265 16396ft 328kts
18-Mar-18 15:34 45.980145 -106.254199 265 15076ft 326kts
18-Mar-18 15:35 45.971921 -106.379365 265 15027ft 306kts
18-Mar-18 15:36 45.963846 -106.500378 265 15027ft 303kts
18-Mar-18 15:37 45.955682 -106.620786 265 15027ft 303kts
18-Mar-18 15:38 45.947554 -106.738782 264 15027ft 303kts
18-Mar-18 15:39 45.939129 -106.859263 264 15027ft 303kts
18-Mar-18 15:40 45.930599 -106.979427 264 15027ft 303kts
18-Mar-18 15:41 45.921935 -107.099665 264 15027ft 303kts
18-Mar-18 15:42 45.913141 -107.219916 264 15027ft 303kts
18-Mar-18 15:43 45.904238 -107.339897 264 15028ft 303kts
18-Mar-18 15:44 45.895469 -107.456444 264 14999ft 304kts
18-Mar-18 15:45 45.886246 -107.577272 264 14999ft 304kts
18-Mar-18 15:46 45.877027 -107.696416 263 14660ft 314kts
18-Mar-18 15:47 45.867056 -107.823472 263 13559ft 323kts
18-Mar-18 15:48 45.857006 -107.949942 264 12003ft 302kts
18-Mar-18 15:49 45.847686 -108.065537 264 10094ft 286kts
18-Mar-18 15:50 45.838488 -108.178039 264 8193ft 284kts
18-Mar-18 15:51 45.829211 -108.290215 264 6294ft 284kts
18-Mar-18 15:52 45.820337 -108.396193 264 5004ft 267kts
18-Mar-18 15:53 45.815048 -108.479410 267 4998ft 244kts
18-Mar-18 15:54 45.833805 -108.584338 298 5043ft 210kts
18-Mar-18 15:55 45.826705 -108.614750 100 4780ft 115kts
18-Mar-18 15:56 45.815278 -108.564115 106 3792ft 130kts
18-Mar-18 15:57 45.808947 -108.541240 111 3656ft 24kts
18-Mar-18 15:58 45.804626 -108.542030 260 3656ft 36kts
18-Mar-18 15:59 45.804548 -108.544577 288 3656ft 0kts

Navigation Log

Ident Type
Flight plan parsing failed, navigation log unavailable